EDT,Max TemperatureF,Mean TemperatureF,Min TemperatureF,Max Dew PointF,MeanDew PointF,Min DewpointF,Max Humidity, Mean Humidity, Min Humidity, Max Sea Level PressureIn, Mean Sea Level PressureIn, Min Sea Level PressureIn, Max VisibilityMiles, Mean VisibilityMiles, Min VisibilityMiles, Max Wind SpeedMPH, Mean Wind SpeedMPH, Max Gust SpeedMPH,PrecipitationIn, CloudCover, Events, WindDirDegrees
2012-10-1,78,68,57,70,64,57,100,91,74,29.79,29.63,29.53,10.0,5.8,1.2,17,7,25,0.00,7,,146
2012-10-2,66,60,53,63,59,54,100,90,77,30.01,29.81,29.66,10.0,9.1,1.5,8,4,,0.00,7,,241
2012-10-3,75,62,50,59,54,48,100,82,47,30.21,30.11,30.01,10.0,8.6,0.2,9,3,,0.00,1,,141
2012-10-4,78,66,55,61,57,54,100,78,44,30.31,30.25,30.21,10.0,10.0,8.0,6,3,,0.00,0,,141
2012-10-5,80,66,51,61,56,52,100,78,42,30.25,30.15,30.03,10.0,8.9,0.5,8,1,,0.00,2,,211
2012-10-6,60,54,48,57,50,43,100,88,71,30.14,30.08,30.00,10.0,9.2,3.0,15,4,,0.00,5,,4
2012-10-7,57,50,44,45,42,37,93,80,48,30.22,30.14,30.09,10.0,9.7,3.0,12,5,,0.00,5,,360
2012-10-8,53,47,39,45,44,39,100,89,67,30.22,30.17,30.13,10.0,9.1,1.8,8,3,,0.00,7,,20
2012-10-9,62,48,33,50,43,34,100,84,59,30.18,30.12,30.05,10.0,6.6,0.2,8,1,,0.00,,,153
2012-10-10,64,54,42,54,50,43,100,85,68,30.24,30.15,30.06,10.0,9.6,1.5,10,2,,0.00,,,321
2012-10-11,68,52,35,52,43,36,100,75,35,30.30,30.25,30.23,10.0,8.9,1.0,6,1,,0.00,8,,219
2012-10-12,66,62,57,63,58,50,100,89,68,30.30,30.26,30.21,10.0,8.3,2.5,9,3,,0.00,8,,296
2012-10-13,77,68,59,63,59,55,100,76,57,30.31,30.25,30.17,10.0,9.6,4.0,16,8,,0.00,2,,144
2012-10-14,73,68,62,64,60,54,100,78,68,30.19,30.08,29.94,10.0,9.7,1.0,20,13,22,0.00,4,,171
2012-10-15,69,58,46,64,53,43,100,79,40,30.04,29.99,29.95,10.0,8.1,0.2,12,3,,0.00,3,,310
2012-10-16,71,55,39,54,47,39,100,74,38,30.03,29.97,29.89,10.0,9.8,4.0,5,0,,0.00,0,,178
2012-10-17,73,62,50,52,48,45,94,64,38,29.93,29.85,29.71,10.0,10.0,10.0,16,5,,0.00,0,,155
2012-10-18,66,58,50,57,49,34,100,71,34,29.83,29.79,29.67,10.0,9.6,2.5,20,9,,0.00,3,,212
2012-10-19,66,55,44,41,38,34,81,50,32,29.86,29.78,29.72,10.0,9.8,6.0,16,5,24,0.00,4,,237
2012-10-20,62,52,41,46,43,39,100,74,52,30.02,29.94,29.86,10.0,10.0,10.0,10,3,,0.00,2,,299
2012-10-21,75,58,41,52,46,39,100,70,34,30.16,30.11,30.02,10.0,10.0,9.0,8,2,,0.00,0,,148
2012-10-22,80,66,53,54,50,45,88,60,28,30.22,30.17,30.12,10.0,10.0,10.0,8,3,,0.00,3,,154
2012-10-23,78,66,53,54,51,48,94,65,34,30.19,30.14,30.09,10.0,10.0,10.0,12,3,,0.00,0,,149
2012-10-24,78,62,46,54,51,45,100,70,39,30.19,30.13,30.07,10.0,9.8,5.0,8,2,,0.00,0,,164
2012-10-25,78,64,51,57,54,48,94,74,44,30.11,30.07,30.03,10.0,9.4,3.0,12,3,,0.00,1,,154
2012-10-26,73,60,48,63,55,46,94,82,64,30.07,30.04,29.97,10.0,10.0,10.0,14,4,,0.00,3,,11
2012-10-27,48,46,44,46,44,43,100,92,82,30.06,30.01,29.97,10.0,8.3,3.0,15,8,,0.00,8,,358
2012-10-28,53,48,44,45,39,30,100,73,47,30.04,29.98,29.93,10.0,9.5,2.5,17,11,,0.00,7,,352
2012-10-29,50,42,35,34,28,19,81,58,30,30.06,30.01,29.89,10.0,10.0,10.0,20,9,25,0.00,0,,334
2012-10-30,51,45,39,28,24,18,61,47,26,29.89,29.82,29.78,10.0,10.0,10.0,17,10,20,0.00,0,,301
2012-10-31,57,42,26,30,24,18,100,58,21,29.96,29.90,29.86,10.0,10.0,10.0,14,3,,0.00,0,,292